createdAt,value
2022-08-10T00:01:52.210Z,16.26
2022-08-10T00:04:22.392Z,16.01
2022-08-10T00:06:52.912Z,16.76
2022-08-10T00:09:21.769Z,16.74
2022-08-10T00:11:49.910Z,16.69
2022-08-10T00:14:18.234Z,16.66
2022-08-10T00:16:47.861Z,16.63
2022-08-10T00:19:16.696Z,16.58
2022-08-10T00:21:45.660Z,16.55
2022-08-10T00:24:13.920Z,15.68
2022-08-10T00:27:50.161Z,15.87
2022-08-10T00:29:30.268Z,16.44
2022-08-10T00:31:59.891Z,15.85
2022-08-10T00:34:28.330Z,16.36
2022-08-10T00:36:57.474Z,16.30
2022-08-10T00:39:26.458Z,15.18
2022-08-10T00:42:06.700Z,15.79
2022-08-10T00:44:37.839Z,16.19
2022-08-10T00:47:21.278Z,16.03
2022-08-10T00:49:57.358Z,15.86
2022-08-10T00:52:27.846Z,16.03
2022-08-10T00:54:56.879Z,15.27
2022-08-10T00:57:26.094Z,14.12
2022-08-10T00:59:57.745Z,15.24
2022-08-10T01:02:30.844Z,15.45
2022-08-10T01:05:02.751Z,14.94
2022-08-10T01:07:52.780Z,15.58
2022-08-10T01:10:42.786Z,15.76
2022-08-10T01:13:15.763Z,14.70
2022-08-10T01:15:57.841Z,15.05
2022-08-10T01:18:37.774Z,15.30
2022-08-10T01:21:56.585Z,14.82
2022-08-10T01:25:00.348Z,14.32
2022-08-10T01:27:37.802Z,14.68
2022-08-10T01:30:09.819Z,15.47
2022-08-10T01:32:50.171Z,14.57
2022-08-10T01:35:25.820Z,14.38
2022-08-10T01:38:04.035Z,15.37
2022-08-10T01:40:36.725Z,15.14
2022-08-10T01:43:11.070Z,14.71
2022-08-10T01:45:46.114Z,15.18
2022-08-10T01:48:29.175Z,15.23
2022-08-10T01:51:02.739Z,14.99
2022-08-10T01:53:40.939Z,13.44
2022-08-10T01:56:11.988Z,15.10
2022-08-10T01:58:41.559Z,15.06
2022-08-10T02:01:17.132Z,14.15
2022-08-10T02:04:04.427Z,14.98
2022-08-10T02:06:39.666Z,14.93
2022-08-10T02:09:14.200Z,14.89
2022-08-10T02:12:05.133Z,14.84
2022-08-10T02:14:35.622Z,14.77
2022-08-10T02:17:08.847Z,13.73
2022-08-10T02:19:39.760Z,14.44
2022-08-10T02:22:37.853Z,13.87
2022-08-10T02:25:01.245Z,14.71
2022-08-10T02:27:31.598Z,14.69
2022-08-10T02:30:01.308Z,14.30
2022-08-10T02:32:38.561Z,13.48
2022-08-10T02:35:13.976Z,14.60
2022-08-10T02:37:52.352Z,14.21
2022-08-10T02:45:12.621Z,13.66
2022-08-10T02:45:26.673Z,13.66
2022-08-10T02:46:12.088Z,13.98
2022-08-10T02:48:45.892Z,14.39
2022-08-10T02:51:20.071Z,14.36
2022-08-10T02:54:13.895Z,13.05
2022-08-10T02:56:47.679Z,12.52
2022-08-10T02:59:21.282Z,13.83
2022-08-10T03:01:51.494Z,13.12
2022-08-10T03:04:54.985Z,13.98
2022-08-10T03:07:19.292Z,12.59
2022-08-10T03:10:14.511Z,14.10
2022-08-10T03:12:45.516Z,13.06
2022-08-10T03:15:16.686Z,13.54
2022-08-10T03:17:58.076Z,13.65
2022-08-10T03:20:37.184Z,13.15
2022-08-10T03:23:13.220Z,13.59
2022-08-10T03:25:53.276Z,13.47
2022-08-10T03:28:25.051Z,13.51
2022-08-10T03:30:55.101Z,13.38
2022-08-10T03:33:26.566Z,13.68
2022-08-10T03:36:41.783Z,13.76
2022-08-10T03:38:51.968Z,12.31
2022-08-10T03:41:29.737Z,12.66
2022-08-10T03:44:08.111Z,12.74
2022-08-10T03:46:40.761Z,12.57
2022-08-10T03:49:09.877Z,13.15
2022-08-10T03:51:41.857Z,13.58
2022-08-10T03:54:10.926Z,13.19
2022-08-10T03:57:49.344Z,11.82
2022-08-10T04:00:19.735Z,13.25
2022-08-10T04:02:49.618Z,13.43
2022-08-10T04:05:18.937Z,13.40
2022-08-10T04:07:49.181Z,13.38
2022-08-10T04:10:17.656Z,13.36
2022-08-10T04:12:45.869Z,13.36
2022-08-10T04:15:13.820Z,13.34
2022-08-10T04:18:03.176Z,13.33
2022-08-10T04:20:34.854Z,13.31
2022-08-10T04:23:08.835Z,13.18
2022-08-10T04:25:39.726Z,13.30
2022-08-10T04:28:08.782Z,13.30
2022-08-10T04:30:38.346Z,13.32
2022-08-10T04:33:11.350Z,13.33
2022-08-10T04:35:40.464Z,13.34
2022-08-10T04:38:11.386Z,13.37
2022-08-10T04:40:39.673Z,13.39
2022-08-10T04:43:12.807Z,13.13
2022-08-10T04:45:49.124Z,13.47
2022-08-10T04:48:43.346Z,13.52
2022-08-10T04:51:16.017Z,13.59
2022-08-10T04:54:04.518Z,13.78
2022-08-10T04:56:40.296Z,14.56
2022-08-10T04:59:11.767Z,15.40
2022-08-10T05:02:28.667Z,16.17
2022-08-10T05:04:37.747Z,16.84
2022-08-10T05:07:16.721Z,17.34
2022-08-10T05:10:02.740Z,17.79
2022-08-10T05:12:37.101Z,18.18
2022-08-10T05:15:09.664Z,18.53
2022-08-10T05:17:40.176Z,17.82
2022-08-10T05:20:10.974Z,19.33
2022-08-10T05:22:41.773Z,19.80
2022-08-10T05:25:13.340Z,20.19
2022-08-10T05:27:42.627Z,20.83
2022-08-10T05:30:13.508Z,21.35
2022-08-10T05:32:56.142Z,21.83
2022-08-10T05:35:26.846Z,22.34
2022-08-10T05:38:10.473Z,22.81
2022-08-10T05:40:46.883Z,23.43
2022-08-10T05:43:18.712Z,23.94
2022-08-10T05:46:17.101Z,24.37
2022-08-10T05:48:54.320Z,25.14
2022-08-10T05:51:25.482Z,25.64
2022-08-10T05:54:01.791Z,26.37
2022-08-10T05:56:56.808Z,26.97
2022-08-10T06:00:31.077Z,26.50
2022-08-10T06:02:34.164Z,28.12
2022-08-10T06:05:09.100Z,27.79
2022-08-10T06:07:41.869Z,28.51
2022-08-10T06:10:14.098Z,29.82
2022-08-10T06:13:31.035Z,29.81
2022-08-10T06:16:06.581Z,31.21
2022-08-10T06:18:39.254Z,31.80
2022-08-10T06:21:13.651Z,32.20
2022-08-10T06:23:51.041Z,32.39
2022-08-10T06:26:21.579Z,32.87
2022-08-10T06:29:03.020Z,33.45
2022-08-10T06:31:48.819Z,33.77
2022-08-10T06:34:22.425Z,34.40
2022-08-10T06:36:54.369Z,34.50
2022-08-10T06:39:39.587Z,34.96
2022-08-10T06:42:17.598Z,35.26
2022-08-10T06:44:59.636Z,36.49
2022-08-10T06:47:37.587Z,36.34
2022-08-10T06:50:12.783Z,36.37
2022-08-10T06:52:42.292Z,37.47
2022-08-10T06:55:16.817Z,37.19
2022-08-10T06:57:59.417Z,38.19
2022-08-10T07:00:33.649Z,38.95
2022-08-10T07:03:08.373Z,39.44
2022-08-10T07:05:41.631Z,40.01
2022-08-10T07:08:11.756Z,40.58
2022-08-10T07:10:45.795Z,41.01
2022-08-10T07:14:16.602Z,41.70
2022-08-10T07:16:09.976Z,42.20
2022-08-10T07:18:40.058Z,42.73
2022-08-10T07:21:09.414Z,43.05
2022-08-10T07:23:57.922Z,43.51
2022-08-10T07:26:28.630Z,43.94
2022-08-10T07:28:57.776Z,44.28
2022-08-10T07:31:54.419Z,44.63
2022-08-10T07:34:28.650Z,45.10
2022-08-10T07:37:01.976Z,45.42
2022-08-10T07:40:03.907Z,45.70
2022-08-10T07:42:22.366Z,46.20
2022-08-10T07:44:51.390Z,46.49
2022-08-10T07:47:46.316Z,46.91
2022-08-10T07:50:15.538Z,47.31
2022-08-10T07:52:44.681Z,47.41
2022-08-10T07:55:16.052Z,47.86
2022-08-10T07:57:47.471Z,48.25
2022-08-10T08:00:16.995Z,48.64
2022-08-10T08:02:50.370Z,49.00
2022-08-10T08:05:27.549Z,49.08
2022-08-10T08:08:10.847Z,49.21
2022-08-10T08:10:39.544Z,49.41
2022-08-10T08:13:07.486Z,49.83
2022-08-10T08:16:19.997Z,50.52
2022-08-10T08:18:26.476Z,51.04
2022-08-10T08:20:55.710Z,51.09
2022-08-10T08:24:08.725Z,51.26
2022-08-10T08:26:15.626Z,51.60
2022-08-10T08:28:45.781Z,51.90
2022-08-10T08:31:15.242Z,52.18
2022-08-10T08:33:46.363Z,52.58
2022-08-10T08:36:17.608Z,52.87
2022-08-10T08:38:46.551Z,53.04
2022-08-10T08:41:38.986Z,53.19
2022-08-10T08:44:16.134Z,53.20
2022-08-10T08:47:00.436Z,53.56
2022-08-10T08:50:08.836Z,53.85
2022-08-10T08:52:48.677Z,54.09
2022-08-10T08:56:02.862Z,54.11
2022-08-10T08:58:39.970Z,54.26
2022-08-10T09:01:24.359Z,54.40
2022-08-10T09:04:24.859Z,54.66
2022-08-10T09:07:59.092Z,54.96
2022-08-10T09:10:27.059Z,55.40
2022-08-10T09:13:00.876Z,55.73
2022-08-10T09:15:41.594Z,55.92
2022-08-10T09:18:19.063Z,56.31
2022-08-10T09:20:50.672Z,56.45
2022-08-10T09:24:04.759Z,55.65
2022-08-10T09:26:20.657Z,55.77
2022-08-10T09:28:52.570Z,56.04
2022-08-10T09:35:39.237Z,55.92
2022-08-10T09:36:24.061Z,54.53
2022-08-10T09:38:02.247Z,53.57
2022-08-10T09:41:01.268Z,53.68
2022-08-10T09:43:37.069Z,54.30
2022-08-10T09:46:12.644Z,54.82
2022-08-10T09:48:46.530Z,55.16
2022-08-10T09:51:47.179Z,54.75
2022-08-10T09:54:40.226Z,53.70
2022-08-10T09:57:43.986Z,52.99
2022-08-10T10:00:10.696Z,53.55
2022-08-10T10:02:52.308Z,53.75
2022-08-10T10:05:34.287Z,53.14
2022-08-10T10:08:10.595Z,52.94
2022-08-10T10:10:47.929Z,52.10
2022-08-10T10:14:01.919Z,51.20
2022-08-10T10:16:28.805Z,51.42
2022-08-10T10:19:08.831Z,50.86
2022-08-10T10:21:55.087Z,51.58
2022-08-10T10:24:34.290Z,53.01
2022-08-10T10:27:16.002Z,53.88
2022-08-10T10:29:59.288Z,53.59
2022-08-10T10:32:39.402Z,51.81
2022-08-10T10:35:17.138Z,51.61
2022-08-10T10:38:01.200Z,52.47
2022-08-10T10:40:39.545Z,53.66
2022-08-10T10:43:16.361Z,54.57
2022-08-10T10:45:56.699Z,55.15
2022-08-10T10:48:33.851Z,54.46
2022-08-10T10:51:10.943Z,54.47
2022-08-10T10:53:47.898Z,54.84
2022-08-10T10:56:21.738Z,55.12
2022-08-10T10:59:00.837Z,54.23
2022-08-10T11:01:39.808Z,53.32
2022-08-10T11:04:19.254Z,53.76
2022-08-10T11:06:57.990Z,53.53
2022-08-10T11:10:04.877Z,54.15
2022-08-10T11:12:32.478Z,53.63
2022-08-10T11:15:06.044Z,53.27
2022-08-10T11:17:43.541Z,52.11
2022-08-10T11:20:15.900Z,51.12
2022-08-10T11:22:50.877Z,51.07
2022-08-10T11:25:26.593Z,50.64
2022-08-10T11:28:01.656Z,50.51
2022-08-10T11:30:39.958Z,50.67
2022-08-10T11:33:30.910Z,50.97
2022-08-10T11:36:04.679Z,50.53
2022-08-10T11:38:57.701Z,49.26
2022-08-10T11:42:07.691Z,47.49
2022-08-10T11:44:30.990Z,45.72
2022-08-10T11:47:03.959Z,43.63
2022-08-10T11:49:37.079Z,41.44
2022-08-10T11:52:10.366Z,39.64
2022-08-10T11:54:42.993Z,38.68
2022-08-10T11:57:12.619Z,37.97
2022-08-10T11:59:59.234Z,37.07
2022-08-10T12:02:32.423Z,36.29
2022-08-10T12:05:06.577Z,35.88
2022-08-10T12:10:06.565Z,35.35
2022-08-10T12:10:30.400Z,35.12
2022-08-10T12:13:06.828Z,34.76
2022-08-10T12:15:44.940Z,34.07
2022-08-10T12:18:21.094Z,34.07
2022-08-10T12:24:42.354Z,33.52
2022-08-10T12:27:27.818Z,33.27
2022-08-10T12:30:09.732Z,33.10
2022-08-10T12:33:05.445Z,33.02
2022-08-10T12:39:15.800Z,32.86
2022-08-10T12:41:59.399Z,32.01
2022-08-10T12:44:45.780Z,32.84
2022-08-10T12:47:21.743Z,32.72
2022-08-10T12:50:23.835Z,32.52
2022-08-10T12:52:52.573Z,32.34
2022-08-10T12:55:23.306Z,32.20
2022-08-10T12:57:54.794Z,32.06
2022-08-10T13:00:30.407Z,31.89
2022-08-10T13:03:01.506Z,31.73
2022-08-10T13:05:54.846Z,31.65
2022-08-10T13:08:39.851Z,31.69
2022-08-10T13:11:19.214Z,31.67
2022-08-10T13:14:09.678Z,31.61
2022-08-10T13:16:38.648Z,31.20
2022-08-10T13:19:08.035Z,31.57
2022-08-10T13:21:39.050Z,31.70
2022-08-10T13:24:11.879Z,31.79
2022-08-10T13:27:06.393Z,31.77
2022-08-10T13:29:42.047Z,31.78
2022-08-10T13:32:12.183Z,31.74
2022-08-10T13:34:46.399Z,31.90
2022-08-10T13:37:17.920Z,31.96
2022-08-10T13:39:59.659Z,31.84
2022-08-10T13:42:33.645Z,31.65
2022-08-10T13:45:09.723Z,31.58
2022-08-10T13:47:48.921Z,31.49
2022-08-10T13:50:33.449Z,31.39
2022-08-10T13:53:11.654Z,31.30
2022-08-10T13:55:53.219Z,31.48
2022-08-10T13:58:27.518Z,31.58
2022-08-10T14:00:58.863Z,31.60
2022-08-10T14:03:28.634Z,31.55
2022-08-10T14:05:59.287Z,31.48
2022-08-10T14:08:32.418Z,31.27
2022-08-10T14:11:11.567Z,31.28
2022-08-10T14:13:54.335Z,31.16
2022-08-10T14:16:23.343Z,31.11
2022-08-10T14:18:54.583Z,31.09
2022-08-10T14:21:23.355Z,31.11
2022-08-10T14:23:53.896Z,30.93
2022-08-10T14:26:26.194Z,31.09
2022-08-10T14:28:59.121Z,31.12
2022-08-10T14:31:33.397Z,31.08
2022-08-10T14:34:03.618Z,31.04
2022-08-10T14:36:40.393Z,31.05
2022-08-10T14:39:11.713Z,30.99
2022-08-10T14:42:01.747Z,30.83
2022-08-10T14:44:33.456Z,30.99
2022-08-10T14:47:52.338Z,30.97
2022-08-10T14:49:57.004Z,31.02
2022-08-10T14:52:28.679Z,31.06
2022-08-10T14:54:58.165Z,31.02
2022-08-10T14:58:16.896Z,30.98
2022-08-10T15:00:30.853Z,30.96
2022-08-10T15:03:10.830Z,30.92
2022-08-10T15:05:54.199Z,30.43
2022-08-10T15:12:15.460Z,30.16
2022-08-10T15:14:44.905Z,31.07
2022-08-10T15:17:41.141Z,31.09
2022-08-10T15:20:16.733Z,30.65
2022-08-10T15:26:57.596Z,30.06
2022-08-10T15:29:57.465Z,30.83
2022-08-10T15:32:52.412Z,30.77
2022-08-10T15:35:45.252Z,30.61
2022-08-10T15:38:22.433Z,30.68
2022-08-10T15:41:01.180Z,30.58
2022-08-10T15:48:06.725Z,30.38
2022-08-10T15:50:39.769Z,30.60
2022-08-10T15:53:16.852Z,30.58
2022-08-10T15:55:52.407Z,30.60
2022-08-10T15:58:39.167Z,30.63
2022-08-10T16:02:04.061Z,30.63
2022-08-10T16:04:08.638Z,29.65
2022-08-10T16:06:42.727Z,30.60
2022-08-10T16:10:24.453Z,30.11
2022-08-10T16:12:12.501Z,30.61
2022-08-10T16:14:46.130Z,29.97
2022-08-10T16:17:15.645Z,29.97
2022-08-10T16:19:52.499Z,30.66
2022-08-10T16:22:35.665Z,29.33
2022-08-10T16:25:14.087Z,30.30
2022-08-10T16:27:43.210Z,30.18
2022-08-10T16:30:12.305Z,30.29
2022-08-10T16:32:46.634Z,29.12
2022-08-10T16:35:23.281Z,30.01
2022-08-10T16:38:00.589Z,30.15
2022-08-10T16:40:31.002Z,30.03
2022-08-10T16:43:01.288Z,29.65
2022-08-10T16:45:36.760Z,29.17
2022-08-10T16:48:10.653Z,30.13
2022-08-10T16:50:45.380Z,30.31
2022-08-10T16:53:19.393Z,30.17
2022-08-10T16:55:50.958Z,29.54
2022-08-10T16:58:27.855Z,29.72
2022-08-10T17:04:10.134Z,29.55
2022-08-10T17:06:45.157Z,30.04
2022-08-10T17:09:25.537Z,29.37
2022-08-10T17:11:57.913Z,29.00
2022-08-10T17:14:31.595Z,29.55
2022-08-10T17:17:11.606Z,29.60
2022-08-10T17:19:45.469Z,29.91
2022-08-10T17:22:22.496Z,29.72
2022-08-10T17:24:56.458Z,29.13
2022-08-10T17:28:24.395Z,29.00
2022-08-10T17:30:34.979Z,29.34
2022-08-10T17:33:11.155Z,29.73
2022-08-10T17:35:41.711Z,29.67
2022-08-10T17:38:14.385Z,29.62
2022-08-10T17:40:47.179Z,29.55
2022-08-10T17:43:46.455Z,28.55
2022-08-10T17:46:11.570Z,29.42
2022-08-10T17:48:41.272Z,29.36
2022-08-10T17:51:11.866Z,29.31
2022-08-10T17:53:43.520Z,29.23
2022-08-10T17:56:12.888Z,28.92
2022-08-10T17:58:46.581Z,28.97
2022-08-10T18:01:41.408Z,29.05
2022-08-10T18:04:16.000Z,28.99
2022-08-10T18:06:44.776Z,28.93
2022-08-10T18:09:40.134Z,28.86
2022-08-10T18:12:51.525Z,26.22
2022-08-10T18:16:13.039Z,27.81
2022-08-10T18:19:00.047Z,27.06
2022-08-10T18:21:32.135Z,28.33
2022-08-10T18:24:04.682Z,28.17
2022-08-10T18:26:38.685Z,27.18
2022-08-10T18:29:11.403Z,27.69
2022-08-10T18:31:44.386Z,27.43
2022-08-10T18:34:16.549Z,27.12
2022-08-10T18:36:48.402Z,26.97
2022-08-10T18:39:22.718Z,26.47
2022-08-10T18:42:00.293Z,26.42
2022-08-10T18:44:37.274Z,26.26
2022-08-10T18:47:10.968Z,25.97
2022-08-10T18:49:51.150Z,25.87
2022-08-10T18:52:23.603Z,25.60
2022-08-10T18:54:56.707Z,25.44
2022-08-10T18:57:36.985Z,25.29
2022-08-10T19:00:11.796Z,25.12
2022-08-10T19:02:50.853Z,24.92
2022-08-10T19:05:32.510Z,24.73
2022-08-10T19:08:31.955Z,24.52
2022-08-10T19:11:04.499Z,24.07
2022-08-10T19:13:48.766Z,24.11
2022-08-10T19:16:31.296Z,23.76
2022-08-10T19:19:21.831Z,23.84
2022-08-10T19:22:01.278Z,23.68
2022-08-10T19:24:44.597Z,23.54
2022-08-10T19:27:22.950Z,23.39
2022-08-10T19:30:09.786Z,23.24
2022-08-10T19:33:00.808Z,23.07
2022-08-10T19:36:03.452Z,22.88
2022-08-10T19:38:42.260Z,22.78
2022-08-10T19:41:32.325Z,22.52
2022-08-10T19:44:18.613Z,22.47
2022-08-10T19:46:57.595Z,22.29
2022-08-10T19:49:45.225Z,22.09
2022-08-10T19:52:23.338Z,22.09
2022-08-10T19:54:59.782Z,21.97
2022-08-10T19:57:35.837Z,21.61
2022-08-10T20:00:19.347Z,21.67
2022-08-10T20:03:03.791Z,21.61
2022-08-10T20:05:42.657Z,21.49
2022-08-10T20:08:36.498Z,21.20
2022-08-10T20:11:08.210Z,20.92
2022-08-10T20:13:47.376Z,21.19
2022-08-10T20:16:21.250Z,21.09
2022-08-10T20:18:55.722Z,20.87
2022-08-10T20:21:29.120Z,20.82
2022-08-10T20:24:03.537Z,20.78
2022-08-10T20:26:34.074Z,20.68
2022-08-10T20:29:08.817Z,20.61
2022-08-10T20:31:43.929Z,20.52
2022-08-10T20:34:25.590Z,20.38
2022-08-10T20:36:58.896Z,20.35
2022-08-10T20:39:38.182Z,20.26
2022-08-10T20:42:12.825Z,20.03
2022-08-10T20:44:52.118Z,20.12
2022-08-10T20:47:30.056Z,20.03
2022-08-10T20:50:16.926Z,19.96
2022-08-10T20:52:46.170Z,19.83
2022-08-10T20:55:16.111Z,19.82
2022-08-10T20:57:57.611Z,19.75
2022-08-10T21:00:41.066Z,19.30
2022-08-10T21:03:51.537Z,19.57
2022-08-10T21:06:44.307Z,19.49
2022-08-10T21:09:28.171Z,19.15
2022-08-10T21:12:16.823Z,19.34
2022-08-10T21:14:54.535Z,19.27
2022-08-10T21:17:44.881Z,19.19
2022-08-10T21:20:34.271Z,19.13
2022-08-10T21:23:08.507Z,19.05
2022-08-10T21:26:08.958Z,18.75
2022-08-10T21:29:04.283Z,18.91
2022-08-10T21:31:51.718Z,18.78
2022-08-10T21:34:32.692Z,18.73
2022-08-10T21:37:08.081Z,18.69
2022-08-10T21:39:50.877Z,18.65
2022-08-10T21:42:50.886Z,18.58
2022-08-10T21:45:59.144Z,18.51
2022-08-10T21:48:57.522Z,18.37
2022-08-10T21:52:01.944Z,18.17
2022-08-10T21:55:00.105Z,18.27
2022-08-10T21:57:58.358Z,18.21
2022-08-10T22:00:44.271Z,18.13
2022-08-10T22:03:39.593Z,18.06
2022-08-10T22:06:28.009Z,18.00
2022-08-10T22:09:19.421Z,17.90
2022-08-10T22:12:24.954Z,17.92
2022-08-10T22:15:24.208Z,17.85
2022-08-10T22:18:32.604Z,17.63
2022-08-10T22:21:28.042Z,17.74
2022-08-10T22:24:41.273Z,17.67
2022-08-10T22:27:48.207Z,17.61
2022-08-10T22:30:36.639Z,17.40
2022-08-10T22:33:41.797Z,17.50
2022-08-10T22:36:56.612Z,17.45
2022-08-10T22:40:10.186Z,17.38
2022-08-10T22:43:10.959Z,17.33
2022-08-10T22:46:06.236Z,17.28
2022-08-10T22:48:59.247Z,17.22
2022-08-10T22:51:35.691Z,17.18
2022-08-10T22:54:30.752Z,17.13
2022-08-10T22:57:19.141Z,17.08
2022-08-10T22:59:49.284Z,16.88
2022-08-10T23:02:30.305Z,16.79
2022-08-10T23:05:04.853Z,16.97
2022-08-10T23:07:35.247Z,16.92
2022-08-10T23:10:07.725Z,16.88
2022-08-10T23:12:40.234Z,16.84
2022-08-10T23:15:35.716Z,16.80
2022-08-10T23:18:26.409Z,16.75
2022-08-10T23:20:57.042Z,16.54
2022-08-10T23:23:28.702Z,16.64
2022-08-10T23:25:58.731Z,16.54
2022-08-10T23:28:39.262Z,16.54
2022-08-10T23:31:50.185Z,16.16
2022-08-10T23:34:09.090Z,16.44
2022-08-10T23:36:40.081Z,16.40
2022-08-10T23:39:25.870Z,16.36
2022-08-10T23:42:07.184Z,16.32
2022-08-10T23:44:44.040Z,16.29
2022-08-10T23:47:14.673Z,16.14
2022-08-10T23:49:46.072Z,16.22
2022-08-10T23:52:16.839Z,16.19
2022-08-10T23:54:48.914Z,16.15
2022-08-10T23:57:20.449Z,16.10
